INFORMACIÓN METAR y TAF
METAR FOR OSDI
ADDS - METARS form results

(0430 UTC 27 October 2021)
Data provider http://aviationweather.gov/metar/data/
 
METAR text: OSDI 270400Z 01002KT CAVOK 08/04 Q1019
Conditions at: OSDI (DAMASCUS (CIV/MI, SY) observed 0400 UTC 27 October 2021
Temperature: 8.0°C (46°F)
Dewpoint: 4.0°C (39°F) [RH = 76%]
Pressure (altimeter): 30.09 inches Hg (1019.0 mb)
Winds: from the N (10 degrees) at 2 MPH (2 knots; 1.0 m/s)
Visibility: 6 or more miles (10+ km)
Ceiling: ceiling and visibility are OK
Clouds: unknown
Weather: no significant weather observed at this time

Forecast for: OSDI (DAMASCUS (CIV/MI, SY)
Text: OSDI 270310Z 2706/2812 22010KT CAVOK
Forecast period: 0600 UTC 27 October 2021 to 1200 UTC 28 October 2021
Forecast type: FROM: standard forecast or significant change
Winds: from the SW (220 degrees) at 12 MPH (10 knots; 5.1 m/s)
Visibility: 6 or more miles (10+ km)
Ceiling: unknown
Clouds: missing
Weather: NSW  (no significant weather)
Text: TEMPO 2712/2720 24010G25KT
Forecast period: 1200 to 2000 UTC 27 October 2021
Forecast type: TEMPORARY: The following changes expected for less than half the time period
Winds: from the WSW (240 degrees) at 12 MPH (10 knots; 5.1 m/s)
gusting to 29 MPH (25 knots; 12.9 m/s)
Visibility: missing
Ceiling: unknown
Clouds: missing
Weather: no significant weather forecast for this period

 MAPA DE AEROPUERTO

 INFORMACIÓN DE PISTA